Central City, PA (15926)

4:55 PM EST on January 25, 2015 (GMT -0500)
Ashtola | Change Station
CLOSE
Current Station
Personal Weather Station
Location: Windber, PA
Elevation: 2085 ft
Nearby Weather Stations
Active Advisory: Winter Weather Advisory

Elev 2085 ft 40.20 °N, 78.80 °W | Updated 4 minutes ago

Snow
Snow
31.4 °F
Feels Like 31 °F
N
0.0
Wind Variable Wind from NE
Gusts 0.0 mph

Today
High -- | Low -- °F
--% Chance of Precip.
Yesterday
High -- | Low -- °F
Precip. -- in
7:29 AM 5:25 PM
Waxing Crescent, 36% visible
Pressure 29.72 in
Visibility 1.0 miles
Clouds Overcast 200 ft
Windchill 31 °F
Dew Point 31 °F
Humidity 97%
Rainfall 0.00 in
Snow Depth Not available.
UV 0 out of 12
Pollen .10 out of 12
Air Quality Not available.
Flu Activity Not available.
SPECI KJST 252131Z AUTO 00000KT 1SM -SN BR OVC002 M01/M01 A2972 RMK AO2 P0000 T10061011

More Conditions Fewer Conditions

Pressure 29.72 in
Visibility 1.0 miles
Clouds Overcast 200 ft
Windchill 31 °F
Dew Point 31 °F
Humidity 97%
Rainfall 0.00 in
Snow Depth Not available.
UV 0 out of 12
Pollen .10 out of 12
Air Quality Not available.
Flu Activity Not available.
SPECI KJST 252131Z AUTO 00000KT 1SM -SN BR OVC002 M01/M01 A2972 RMK AO2 P0000 T10061011

More Conditions Fewer Conditions

10-Day Weather Forecast

Almanac

Astronomy

Jan. 25, 2015 Rise Set
Actual Time
Civil Twilight
Nautical Twilight
Astronomical Twilight
Moon
Length of Visible Light
Length of Day
Tomorrow will be .
, % of the Moon is Illuminated

Today's Extremes

State Highs State Lows

Community

WunderPhotos

Upload Photos

1,790,059 photos uploaded!

WunderBlogs® & News

Nearby

Air Quality

  Air Quality AQ Index Pollutant
Not available.

Snow Depth

Station Depth Elevation

Earthquake Activity

City Distance Mag. Time & Date
Minimum magnitude displayed is 2.5.

Coastal Water Temperatures

Place Temperature

Nearby Weather Stations